sensor_id;sensor_type;location;lat;lon;timestamp;pressure;altitude;pressure_sealevel;temperature;humidity
31011;BME280;26395;53.412;19.598;2023-02-19T00:10:19;99647.83;;;4.79;87.73
31011;BME280;26395;53.412;19.598;2023-02-19T00:25:22;99652.96;;;4.59;88.00
31011;BME280;26395;53.412;19.598;2023-02-19T01:00:03;99666.84;;;4.19;89.17
31011;BME280;26395;53.412;19.598;2023-02-19T01:15:17;99659.45;;;4.14;89.27
31011;BME280;26395;53.412;19.598;2023-02-19T01:30:39;99662.39;;;4.14;89.16
31011;BME280;26395;53.412;19.598;2023-02-19T01:45:44;99657.49;;;4.22;88.53
31011;BME280;26395;53.412;19.598;2023-02-19T02:00:47;99655.29;;;4.29;88.26
31011;BME280;26395;53.412;19.598;2023-02-19T02:31:32;99633.95;;;4.49;86.99
31011;BME280;26395;53.412;19.598;2023-02-19T02:46:40;99638.59;;;4.56;86.08
31011;BME280;26395;53.412;19.598;2023-02-19T03:17:19;99602.68;;;4.88;83.22
31011;BME280;26395;53.412;19.598;2023-02-19T03:32:56;99590.64;;;4.95;83.51
31011;BME280;26395;53.412;19.598;2023-02-19T03:48:40;99600.96;;;5.08;83.11
31011;BME280;26395;53.412;19.598;2023-02-19T04:03:56;99602.00;;;5.10;83.10
31011;BME280;26395;53.412;19.598;2023-02-19T04:19:06;99613.46;;;5.10;83.87
31011;BME280;26395;53.412;19.598;2023-02-19T04:34:11;99615.73;;;5.05;83.45
31011;BME280;26395;53.412;19.598;2023-02-19T04:55:54;99604.93;;;5.01;82.78
31011;BME280;26395;53.412;19.598;2023-02-19T05:21:08;99599.66;;;4.81;83.47
31011;BME280;26395;53.412;19.598;2023-02-19T05:36:12;99605.65;;;4.69;84.57
31011;BME280;26395;53.412;19.598;2023-02-19T05:51:17;99603.12;;;4.72;85.30
31011;BME280;26395;53.412;19.598;2023-02-19T06:06:21;99609.91;;;4.79;86.07
31011;BME280;26395;53.412;19.598;2023-02-19T06:21:25;99614.70;;;4.77;86.28
31011;BME280;26395;53.412;19.598;2023-02-19T06:36:28;99636.48;;;4.76;87.79
31011;BME280;26395;53.412;19.598;2023-02-19T06:51:31;99646.65;;;4.79;88.06
31011;BME280;26395;53.412;19.598;2023-02-19T07:06:35;99653.55;;;4.93;88.55
31011;BME280;26395;53.412;19.598;2023-02-19T07:21:40;99664.33;;;5.07;88.16
31011;BME280;26395;53.412;19.598;2023-02-19T07:36:44;99676.92;;;5.14;87.63
31011;BME280;26395;53.412;19.598;2023-02-19T07:51:47;99695.66;;;5.19;87.41
31011;BME280;26395;53.412;19.598;2023-02-19T08:06:52;99704.06;;;5.41;86.04
31011;BME280;26395;53.412;19.598;2023-02-19T08:21:55;99719.82;;;5.60;86.50
31011;BME280;26395;53.412;19.598;2023-02-19T08:36:58;99733.72;;;6.12;85.04
31011;BME280;26395;53.412;19.598;2023-02-19T08:52:04;99740.75;;;6.71;82.93
31011;BME280;26395;53.412;19.598;2023-02-19T09:07:08;99746.20;;;6.83;80.84
31011;BME280;26395;53.412;19.598;2023-02-19T09:22:14;99756.21;;;7.38;79.03
31011;BME280;26395;53.412;19.598;2023-02-19T09:37:17;99766.92;;;7.66;76.85
31011;BME280;26395;53.412;19.598;2023-02-19T10:07:39;99793.44;;;8.05;73.36
31011;BME280;26395;53.412;19.598;2023-02-19T10:22:44;99805.13;;;9.06;70.16
31011;BME280;26395;53.412;19.598;2023-02-19T10:37:49;99809.95;;;9.59;66.78
31011;BME280;26395;53.412;19.598;2023-02-19T10:52:56;99820.65;;;9.95;63.05
31011;BME280;26395;53.412;19.598;2023-02-19T11:08:00;99832.66;;;10.08;63.56
31011;BME280;26395;53.412;19.598;2023-02-19T11:23:13;99836.91;;;10.17;61.23
31011;BME280;26395;53.412;19.598;2023-02-19T11:38:18;99851.48;;;9.88;59.51
31011;BME280;26395;53.412;19.598;2023-02-19T11:53:26;99856.29;;;10.55;57.74
31011;BME280;26395;53.412;19.598;2023-02-19T12:54:43;99909.27;;;11.09;48.99
31011;BME280;26395;53.412;19.598;2023-02-19T13:10:05;99918.61;;;11.21;49.70
31011;BME280;26395;53.412;19.598;2023-02-19T13:25:10;99931.03;;;11.49;48.27
31011;BME280;26395;53.412;19.598;2023-02-19T13:40:38;99945.05;;;10.27;49.80
31011;BME280;26395;53.412;19.598;2023-02-19T13:55:48;99950.66;;;9.78;50.12
31011;BME280;26395;53.412;19.598;2023-02-19T14:10:57;99969.19;;;9.14;51.66
31011;BME280;26395;53.412;19.598;2023-02-19T14:26:05;99977.03;;;14.05;50.64
31011;BME280;26395;53.412;19.598;2023-02-19T14:41:11;99987.05;;;21.56;44.45
31011;BME280;26395;53.412;19.598;2023-02-19T14:56:25;100004.83;;;20.88;39.05
31011;BME280;26395;53.412;19.598;2023-02-19T15:11:31;100011.35;;;17.42;40.01
31011;BME280;26395;53.412;19.598;2023-02-19T15:26:39;100029.14;;;12.77;41.68
31011;BME280;26395;53.412;19.598;2023-02-19T15:41:59;100044.59;;;11.61;43.04
31011;BME280;26395;53.412;19.598;2023-02-19T15:57:11;100078.05;;;11.43;42.65
31011;BME280;26395;53.412;19.598;2023-02-19T16:12:20;100108.52;;;8.77;45.33
31011;BME280;26395;53.412;19.598;2023-02-19T16:58:15;100175.52;;;6.43;49.99
31011;BME280;26395;53.412;19.598;2023-02-19T17:13:19;100209.73;;;6.06;50.66
31011;BME280;26395;53.412;19.598;2023-02-19T17:28:22;100227.93;;;5.81;50.46
31011;BME280;26395;53.412;19.598;2023-02-19T17:43:26;100241.73;;;5.54;50.12
31011;BME280;26395;53.412;19.598;2023-02-19T17:58:29;100249.49;;;5.34;51.30
31011;BME280;26395;53.412;19.598;2023-02-19T18:13:33;100262.36;;;5.09;51.88
31011;BME280;26395;53.412;19.598;2023-02-19T18:28:37;100283.48;;;4.91;52.61
31011;BME280;26395;53.412;19.598;2023-02-19T18:43:40;100294.92;;;4.80;53.38
31011;BME280;26395;53.412;19.598;2023-02-19T18:58:44;100307.52;;;4.70;53.83
31011;BME280;26395;53.412;19.598;2023-02-19T19:13:47;100326.05;;;4.59;55.11
31011;BME280;26395;53.412;19.598;2023-02-19T19:28:51;100319.62;;;4.71;55.64
31011;BME280;26395;53.412;19.598;2023-02-19T19:43:54;100302.29;;;4.65;56.87
31011;BME280;26395;53.412;19.598;2023-02-19T19:58:58;100295.19;;;4.62;57.76
31011;BME280;26395;53.412;19.598;2023-02-19T20:14:01;100299.30;;;4.38;59.31
31011;BME280;26395;53.412;19.598;2023-02-19T20:29:05;100307.23;;;4.33;61.24
31011;BME280;26395;53.412;19.598;2023-02-19T20:44:10;100316.11;;;4.40;62.75
31011;BME280;26395;53.412;19.598;2023-02-19T20:59:15;100312.81;;;4.52;64.38
31011;BME280;26395;53.412;19.598;2023-02-19T21:14:19;100308.27;;;4.52;65.46
31011;BME280;26395;53.412;19.598;2023-02-19T21:29:24;100313.60;;;4.61;67.49
31011;BME280;26395;53.412;19.598;2023-02-19T21:44:27;100322.88;;;4.51;68.98
31011;BME280;26395;53.412;19.598;2023-02-19T21:59:31;100315.59;;;4.54;69.63
31011;BME280;26395;53.412;19.598;2023-02-19T22:14:36;100319.60;;;4.51;69.43
31011;BME280;26395;53.412;19.598;2023-02-19T22:29:40;100309.87;;;4.46;69.29
31011;BME280;26395;53.412;19.598;2023-02-19T22:44:44;100310.64;;;4.22;69.77
31011;BME280;26395;53.412;19.598;2023-02-19T22:59:47;100314.98;;;4.04;70.77
31011;BME280;26395;53.412;19.598;2023-02-19T23:14:51;100306.65;;;4.14;71.14
31011;BME280;26395;53.412;19.598;2023-02-19T23:29:56;100298.45;;;4.21;71.53
31011;BME280;26395;53.412;19.598;2023-02-19T23:45:00;100289.88;;;4.33;71.72
